Amber, Washington
Current Conditions -  °F | °C
As of 12:45 PM on Wednesday 26 Nov 2014 (Local Time) from KSKA Reporting Station
Haze Haze  
Wind Chill: 36°   Ceiling: 200
Heat Index: 41°   Visibility: 1.2mi
Dew Point: 41°   Wind: 7mph
Humidity: 100%   Direction: 190°S
Pressure: 30.1"   Gusts: NA
Location:  47.411°N, 117.628°W
Report Text: KSKA 262045Z AUTO 19006KT 1 1/4SM BR OVC002 05/05 A3010 RMK AO2 VIS 1/2V1 1/4 VIS 1/4 RWY05
Loading
Personal Weather Stations






























Interactive Weather Map New forecast layout! Learn more

10-Day Weather Forecast

Advertisements
Track Severe Weather on mobile